sensor_id;sensor_type;location;lat;lon;timestamp;P1;durP1;ratioP1;P2;durP2;ratioP2
4547;SDS011;2286;51.570;7.090;2023-04-06T00:00:09;12.37;;;10.13;;
4547;SDS011;2286;51.570;7.090;2023-04-06T00:02:37;12.23;;;9.70;;
4547;SDS011;2286;51.570;7.090;2023-04-06T00:05:06;12.23;;;10.60;;
4547;SDS011;2286;51.570;7.090;2023-04-06T00:07:33;12.17;;;10.53;;
4547;SDS011;2286;51.570;7.090;2023-04-06T00:10:01;12.87;;;11.47;;
4547;SDS011;2286;51.570;7.090;2023-04-06T00:12:28;19.67;;;12.00;;
4547;SDS011;2286;51.570;7.090;2023-04-06T00:14:55;13.67;;;10.83;;
4547;SDS011;2286;51.570;7.090;2023-04-06T00:17:21;13.73;;;12.30;;
4547;SDS011;2286;51.570;7.090;2023-04-06T00:19:48;16.30;;;12.50;;
4547;SDS011;2286;51.570;7.090;2023-04-06T00:22:17;13.67;;;11.27;;
4547;SDS011;2286;51.570;7.090;2023-04-06T00:24:44;13.40;;;11.07;;
4547;SDS011;2286;51.570;7.090;2023-04-06T00:27:11;14.07;;;12.57;;
4547;SDS011;2286;51.570;7.090;2023-04-06T00:29:39;14.10;;;11.70;;
4547;SDS011;2286;51.570;7.090;2023-04-06T00:32:06;15.17;;;12.03;;
4547;SDS011;2286;51.570;7.090;2023-04-06T00:34:33;20.13;;;12.80;;
4547;SDS011;2286;51.570;7.090;2023-04-06T00:37:00;13.30;;;11.90;;
4547;SDS011;2286;51.570;7.090;2023-04-06T00:39:28;12.60;;;10.90;;
4547;SDS011;2286;51.570;7.090;2023-04-06T00:41:55;17.07;;;13.33;;
4547;SDS011;2286;51.570;7.090;2023-04-06T00:44:22;14.93;;;12.27;;
4547;SDS011;2286;51.570;7.090;2023-04-06T00:46:50;13.73;;;12.40;;
4547;SDS011;2286;51.570;7.090;2023-04-06T00:49:17;17.38;;;12.95;;
4547;SDS011;2286;51.570;7.090;2023-04-06T00:51:44;14.47;;;12.40;;
4547;SDS011;2286;51.570;7.090;2023-04-06T00:54:10;14.50;;;13.00;;
4547;SDS011;2286;51.570;7.090;2023-04-06T00:56:39;14.80;;;12.63;;
4547;SDS011;2286;51.570;7.090;2023-04-06T00:59:07;13.13;;;11.70;;
4547;SDS011;2286;51.570;7.090;2023-04-06T01:01:34;15.95;;;12.63;;
4547;SDS011;2286;51.570;7.090;2023-04-06T02:48:32;18.02;;;15.63;;
4547;SDS011;2286;51.570;7.090;2023-04-06T02:51:01;19.25;;;15.50;;
4547;SDS011;2286;51.570;7.090;2023-04-06T02:53:28;17.65;;;14.13;;
4547;SDS011;2286;51.570;7.090;2023-04-06T02:55:55;19.98;;;15.32;;
4547;SDS011;2286;51.570;7.090;2023-04-06T02:58:22;16.50;;;14.68;;
4547;SDS011;2286;51.570;7.090;2023-04-06T03:00:50;17.58;;;15.65;;
4547;SDS011;2286;51.570;7.090;2023-04-06T03:03:17;21.08;;;15.15;;
4547;SDS011;2286;51.570;7.090;2023-04-06T03:05:46;20.40;;;15.02;;
4547;SDS011;2286;51.570;7.090;2023-04-06T03:08:13;16.52;;;14.23;;
4547;SDS011;2286;51.570;7.090;2023-04-06T03:10:40;18.45;;;15.18;;
4547;SDS011;2286;51.570;7.090;2023-04-06T03:13:07;16.27;;;14.00;;
4547;SDS011;2286;51.570;7.090;2023-04-06T03:15:34;22.45;;;15.05;;
4547;SDS011;2286;51.570;7.090;2023-04-06T03:18:01;19.70;;;14.65;;
4547;SDS011;2286;51.570;7.090;2023-04-06T03:20:29;19.70;;;15.18;;
4547;SDS011;2286;51.570;7.090;2023-04-06T03:22:57;19.52;;;15.60;;
4547;SDS011;2286;51.570;7.090;2023-04-06T03:25:25;17.75;;;14.63;;
4547;SDS011;2286;51.570;7.090;2023-04-06T03:27:52;19.20;;;15.57;;
4547;SDS011;2286;51.570;7.090;2023-04-06T03:30:19;17.65;;;15.63;;
4547;SDS011;2286;51.570;7.090;2023-04-06T03:32:46;21.42;;;15.93;;
4547;SDS011;2286;51.570;7.090;2023-04-06T03:35:13;19.45;;;15.93;;
4547;SDS011;2286;51.570;7.090;2023-04-06T03:37:41;25.77;;;15.65;;
4547;SDS011;2286;51.570;7.090;2023-04-06T03:40:10;24.20;;;15.95;;
4547;SDS011;2286;51.570;7.090;2023-04-06T03:42:37;18.45;;;16.25;;
4547;SDS011;2286;51.570;7.090;2023-04-06T03:45:04;20.55;;;15.27;;
4547;SDS011;2286;51.570;7.090;2023-04-06T03:47:32;16.45;;;14.60;;
4547;SDS011;2286;51.570;7.090;2023-04-06T03:50:00;17.15;;;14.68;;
4547;SDS011;2286;51.570;7.090;2023-04-06T03:52:28;20.88;;;15.18;;
4547;SDS011;2286;51.570;7.090;2023-04-06T03:54:55;18.60;;;15.27;;
4547;SDS011;2286;51.570;7.090;2023-04-06T03:57:24;22.00;;;14.70;;
4547;SDS011;2286;51.570;7.090;2023-04-06T03:59:51;19.77;;;15.50;;
4547;SDS011;2286;51.570;7.090;2023-04-06T04:02:18;18.25;;;15.05;;
4547;SDS011;2286;51.570;7.090;2023-04-06T04:04:45;15.80;;;13.48;;
4547;SDS011;2286;51.570;7.090;2023-04-06T04:07:12;18.30;;;14.32;;
4547;SDS011;2286;51.570;7.090;2023-04-06T04:09:40;19.00;;;15.73;;
4547;SDS011;2286;51.570;7.090;2023-04-06T04:12:07;19.80;;;15.50;;
4547;SDS011;2286;51.570;7.090;2023-04-06T04:14:35;19.70;;;15.52;;
4547;SDS011;2286;51.570;7.090;2023-04-06T04:17:02;21.83;;;16.55;;
4547;SDS011;2286;51.570;7.090;2023-04-06T04:19:30;16.88;;;14.93;;
4547;SDS011;2286;51.570;7.090;2023-04-06T04:21:57;22.10;;;15.60;;
4547;SDS011;2286;51.570;7.090;2023-04-06T04:24:24;17.90;;;15.52;;
4547;SDS011;2286;51.570;7.090;2023-04-06T04:26:51;17.85;;;15.07;;
4547;SDS011;2286;51.570;7.090;2023-04-06T04:29:19;17.75;;;15.15;;
4547;SDS011;2286;51.570;7.090;2023-04-06T04:31:49;19.48;;;14.65;;
4547;SDS011;2286;51.570;7.090;2023-04-06T04:34:17;16.98;;;14.82;;
4547;SDS011;2286;51.570;7.090;2023-04-06T04:36:45;19.92;;;15.43;;
4547;SDS011;2286;51.570;7.090;2023-04-06T04:39:13;19.90;;;15.38;;
4547;SDS011;2286;51.570;7.090;2023-04-06T04:41:40;20.60;;;16.10;;
4547;SDS011;2286;51.570;7.090;2023-04-06T04:44:07;16.85;;;15.02;;
4547;SDS011;2286;51.570;7.090;2023-04-06T04:46:34;18.30;;;15.75;;
4547;SDS011;2286;51.570;7.090;2023-04-06T04:49:03;18.05;;;15.95;;
4547;SDS011;2286;51.570;7.090;2023-04-06T04:51:30;21.92;;;15.13;;
4547;SDS011;2286;51.570;7.090;2023-04-06T04:53:57;19.52;;;14.85;;
4547;SDS011;2286;51.570;7.090;2023-04-06T04:56:25;21.45;;;15.45;;
4547;SDS011;2286;51.570;7.090;2023-04-06T04:58:52;21.35;;;14.98;;
4547;SDS011;2286;51.570;7.090;2023-04-06T05:01:19;19.92;;;15.25;;
4547;SDS011;2286;51.570;7.090;2023-04-06T05:03:47;21.00;;;15.90;;
4547;SDS011;2286;51.570;7.090;2023-04-06T05:06:15;21.65;;;15.60;;
4547;SDS011;2286;51.570;7.090;2023-04-06T05:08:43;24.13;;;16.70;;
4547;SDS011;2286;51.570;7.090;2023-04-06T05:11:10;21.70;;;17.02;;
4547;SDS011;2286;51.570;7.090;2023-04-06T05:13:37;23.33;;;16.15;;
4547;SDS011;2286;51.570;7.090;2023-04-06T05:16:05;21.55;;;16.08;;
4547;SDS011;2286;51.570;7.090;2023-04-06T05:18:32;24.02;;;15.88;;
4547;SDS011;2286;51.570;7.090;2023-04-06T05:21:00;24.27;;;16.92;;
4547;SDS011;2286;51.570;7.090;2023-04-06T05:23:28;24.77;;;16.48;;
4547;SDS011;2286;51.570;7.090;2023-04-06T05:25:55;20.80;;;15.88;;
4547;SDS011;2286;51.570;7.090;2023-04-06T05:28:23;22.83;;;15.43;;
4547;SDS011;2286;51.570;7.090;2023-04-06T05:30:50;20.67;;;15.52;;
4547;SDS011;2286;51.570;7.090;2023-04-06T05:33:18;24.45;;;15.45;;
4547;SDS011;2286;51.570;7.090;2023-04-06T05:35:45;18.17;;;14.43;;
4547;SDS011;2286;51.570;7.090;2023-04-06T05:38:12;18.55;;;14.25;;
4547;SDS011;2286;51.570;7.090;2023-04-06T05:40:41;18.08;;;15.07;;
4547;SDS011;2286;51.570;7.090;2023-04-06T05:43:08;22.85;;;15.20;;
4547;SDS011;2286;51.570;7.090;2023-04-06T05:45:36;18.58;;;15.40;;
4547;SDS011;2286;51.570;7.090;2023-04-06T05:48:03;16.70;;;14.05;;
4547;SDS011;2286;51.570;7.090;2023-04-06T05:50:30;19.55;;;15.98;;
4547;SDS011;2286;51.570;7.090;2023-04-06T05:52:57;17.98;;;13.98;;
4547;SDS011;2286;51.570;7.090;2023-04-06T05:55:24;16.67;;;14.82;;
4547;SDS011;2286;51.570;7.090;2023-04-06T05:57:54;20.33;;;15.68;;
4547;SDS011;2286;51.570;7.090;2023-04-06T06:00:21;19.38;;;14.73;;
4547;SDS011;2286;51.570;7.090;2023-04-06T06:02:49;20.88;;;15.07;;
4547;SDS011;2286;51.570;7.090;2023-04-06T06:05:16;20.50;;;14.98;;
4547;SDS011;2286;51.570;7.090;2023-04-06T06:07:43;17.83;;;14.60;;
4547;SDS011;2286;51.570;7.090;2023-04-06T06:10:10;17.13;;;14.15;;
4547;SDS011;2286;51.570;7.090;2023-04-06T06:12:38;20.83;;;15.00;;
4547;SDS011;2286;51.570;7.090;2023-04-06T06:15:07;15.88;;;14.25;;
4547;SDS011;2286;51.570;7.090;2023-04-06T06:17:34;17.35;;;13.88;;
4547;SDS011;2286;51.570;7.090;2023-04-06T06:20:02;19.77;;;16.45;;
4547;SDS011;2286;51.570;7.090;2023-04-06T06:22:30;20.05;;;14.50;;
4547;SDS011;2286;51.570;7.090;2023-04-06T06:24:57;17.30;;;15.35;;
4547;SDS011;2286;51.570;7.090;2023-04-06T06:27:24;14.90;;;13.30;;
4547;SDS011;2286;51.570;7.090;2023-04-06T06:29:52;16.20;;;13.77;;
4547;SDS011;2286;51.570;7.090;2023-04-06T06:32:20;20.17;;;16.05;;
4547;SDS011;2286;51.570;7.090;2023-04-06T06:34:47;20.20;;;13.83;;
4547;SDS011;2286;51.570;7.090;2023-04-06T06:37:14;15.70;;;12.93;;
4547;SDS011;2286;51.570;7.090;2023-04-06T06:39:42;16.40;;;13.37;;
4547;SDS011;2286;51.570;7.090;2023-04-06T06:42:09;16.42;;;13.20;;
4547;SDS011;2286;51.570;7.090;2023-04-06T06:44:36;17.67;;;11.93;;
4547;SDS011;2286;51.570;7.090;2023-04-06T06:47:03;12.18;;;10.25;;
4547;SDS011;2286;51.570;7.090;2023-04-06T06:49:32;12.88;;;10.48;;
4547;SDS011;2286;51.570;7.090;2023-04-06T06:51:59;13.40;;;10.40;;
4547;SDS011;2286;51.570;7.090;2023-04-06T06:54:26;15.67;;;10.33;;
4547;SDS011;2286;51.570;7.090;2023-04-06T06:56:53;14.60;;;10.70;;
4547;SDS011;2286;51.570;7.090;2023-04-06T06:59:21;13.80;;;10.37;;
4547;SDS011;2286;51.570;7.090;2023-04-06T07:01:48;11.40;;;10.20;;
4547;SDS011;2286;51.570;7.090;2023-04-06T07:04:16;14.70;;;11.30;;
4547;SDS011;2286;51.570;7.090;2023-04-06T07:06:44;13.60;;;10.70;;
4547;SDS011;2286;51.570;7.090;2023-04-06T07:09:12;11.27;;;10.07;;
4547;SDS011;2286;51.570;7.090;2023-04-06T07:11:39;12.50;;;10.77;;
4547;SDS011;2286;51.570;7.090;2023-04-06T07:14:06;12.57;;;10.63;;
4547;SDS011;2286;51.570;7.090;2023-04-06T07:16:33;13.40;;;9.90;;
4547;SDS011;2286;51.570;7.090;2023-04-06T07:19:00;10.73;;;9.63;;
4547;SDS011;2286;51.570;7.090;2023-04-06T07:21:27;11.80;;;9.73;;
4547;SDS011;2286;51.570;7.090;2023-04-06T07:23:56;15.97;;;11.40;;
4547;SDS011;2286;51.570;7.090;2023-04-06T07:26:23;13.43;;;10.20;;
4547;SDS011;2286;51.570;7.090;2023-04-06T07:28:50;14.47;;;12.10;;
4547;SDS011;2286;51.570;7.090;2023-04-06T07:31:18;11.30;;;9.90;;
4547;SDS011;2286;51.570;7.090;2023-04-06T07:33:45;11.87;;;9.77;;
4547;SDS011;2286;51.570;7.090;2023-04-06T07:36:12;10.87;;;9.73;;
4547;SDS011;2286;51.570;7.090;2023-04-06T07:38:39;10.67;;;8.77;;
4547;SDS011;2286;51.570;7.090;2023-04-06T07:41:08;11.27;;;8.60;;
4547;SDS011;2286;51.570;7.090;2023-04-06T07:43:35;10.30;;;8.80;;
4547;SDS011;2286;51.570;7.090;2023-04-06T07:46:03;10.67;;;9.53;;
4547;SDS011;2286;51.570;7.090;2023-04-06T07:48:30;10.73;;;8.83;;
4547;SDS011;2286;51.570;7.090;2023-04-06T07:51:01;8.87;;;8.07;;
4547;SDS011;2286;51.570;7.090;2023-04-06T07:53:28;10.90;;;8.97;;
4547;SDS011;2286;51.570;7.090;2023-04-06T07:55:55;9.43;;;8.10;;
4547;SDS011;2286;51.570;7.090;2023-04-06T07:58:24;7.83;;;7.13;;
4547;SDS011;2286;51.570;7.090;2023-04-06T08:00:51;10.23;;;9.07;;
4547;SDS011;2286;51.570;7.090;2023-04-06T08:03:19;11.03;;;8.60;;
4547;SDS011;2286;51.570;7.090;2023-04-06T08:05:50;9.90;;;8.77;;
4547;SDS011;2286;51.570;7.090;2023-04-06T08:08:18;9.07;;;7.53;;
4547;SDS011;2286;51.570;7.090;2023-04-06T08:10:46;10.10;;;9.20;;
4547;SDS011;2286;51.570;7.090;2023-04-06T08:13:13;12.63;;;9.03;;
4547;SDS011;2286;51.570;7.090;2023-04-06T08:15:42;11.57;;;8.80;;
4547;SDS011;2286;51.570;7.090;2023-04-06T08:18:10;13.23;;;9.17;;
4547;SDS011;2286;51.570;7.090;2023-04-06T08:20:37;10.13;;;9.13;;
4547;SDS011;2286;51.570;7.090;2023-04-06T08:23:05;12.73;;;8.90;;
4547;SDS011;2286;51.570;7.090;2023-04-06T08:25:34;10.47;;;9.13;;
4547;SDS011;2286;51.570;7.090;2023-04-06T08:28:02;13.87;;;9.43;;
4547;SDS011;2286;51.570;7.090;2023-04-06T08:30:29;9.63;;;8.63;;
4547;SDS011;2286;51.570;7.090;2023-04-06T08:32:58;10.43;;;9.17;;
4547;SDS011;2286;51.570;7.090;2023-04-06T08:35:25;10.20;;;9.20;;
4547;SDS011;2286;51.570;7.090;2023-04-06T08:37:53;10.37;;;9.37;;
4547;SDS011;2286;51.570;7.090;2023-04-06T08:40:20;10.20;;;9.20;;
4547;SDS011;2286;51.570;7.090;2023-04-06T08:42:49;10.80;;;9.60;;
4547;SDS011;2286;51.570;7.090;2023-04-06T08:45:18;9.93;;;8.87;;
4547;SDS011;2286;51.570;7.090;2023-04-06T08:47:46;11.47;;;9.40;;
4547;SDS011;2286;51.570;7.090;2023-04-06T08:50:16;11.37;;;10.23;;
4547;SDS011;2286;51.570;7.090;2023-04-06T08:52:44;11.60;;;10.40;;
4547;SDS011;2286;51.570;7.090;2023-04-06T08:55:14;10.10;;;9.13;;
4547;SDS011;2286;51.570;7.090;2023-04-06T08:57:41;10.83;;;9.73;;
4547;SDS011;2286;51.570;7.090;2023-04-06T09:00:10;12.67;;;10.20;;
4547;SDS011;2286;51.570;7.090;2023-04-06T09:02:38;10.90;;;9.80;;
4547;SDS011;2286;51.570;7.090;2023-04-06T09:05:07;11.20;;;9.87;;
4547;SDS011;2286;51.570;7.090;2023-04-06T09:07:36;17.67;;;11.77;;
4547;SDS011;2286;51.570;7.090;2023-04-06T09:10:04;13.30;;;11.23;;
4547;SDS011;2286;51.570;7.090;2023-04-06T09:12:32;13.70;;;10.27;;
4547;SDS011;2286;51.570;7.090;2023-04-06T09:15:00;13.90;;;10.67;;
4547;SDS011;2286;51.570;7.090;2023-04-06T09:17:29;14.57;;;10.40;;
4547;SDS011;2286;51.570;7.090;2023-04-06T09:19:58;12.23;;;10.93;;
4547;SDS011;2286;51.570;7.090;2023-04-06T09:22:34;14.80;;;11.40;;
4547;SDS011;2286;51.570;7.090;2023-04-06T09:25:04;13.77;;;11.73;;
4547;SDS011;2286;51.570;7.090;2023-04-06T09:27:32;11.23;;;10.07;;
4547;SDS011;2286;51.570;7.090;2023-04-06T09:30:04;15.20;;;10.97;;
4547;SDS011;2286;51.570;7.090;2023-04-06T09:32:32;11.37;;;10.27;;
4547;SDS011;2286;51.570;7.090;2023-04-06T09:35:12;13.00;;;11.03;;
4547;SDS011;2286;51.570;7.090;2023-04-06T09:37:41;15.93;;;11.43;;
4547;SDS011;2286;51.570;7.090;2023-04-06T09:40:08;12.90;;;9.43;;
4547;SDS011;2286;51.570;7.090;2023-04-06T09:42:36;13.00;;;11.57;;
4547;SDS011;2286;51.570;7.090;2023-04-06T09:45:04;18.30;;;10.73;;
4547;SDS011;2286;51.570;7.090;2023-04-06T09:47:32;12.53;;;10.90;;
4547;SDS011;2286;51.570;7.090;2023-04-06T09:50:02;13.67;;;11.37;;
4547;SDS011;2286;51.570;7.090;2023-04-06T09:52:30;16.63;;;13.10;;
4547;SDS011;2286;51.570;7.090;2023-04-06T09:55:01;16.50;;;12.20;;
4547;SDS011;2286;51.570;7.090;2023-04-06T09:57:31;16.50;;;11.47;;
4547;SDS011;2286;51.570;7.090;2023-04-06T10:00:03;18.80;;;12.50;;
4547;SDS011;2286;51.570;7.090;2023-04-06T10:02:41;14.83;;;12.77;;
4547;SDS011;2286;51.570;7.090;2023-04-06T10:05:16;16.60;;;11.23;;
4547;SDS011;2286;51.570;7.090;2023-04-06T10:07:47;12.43;;;10.90;;
4547;SDS011;2286;51.570;7.090;2023-04-06T10:10:18;15.13;;;12.23;;
4547;SDS011;2286;51.570;7.090;2023-04-06T10:12:46;14.50;;;11.37;;
4547;SDS011;2286;51.570;7.090;2023-04-06T10:15:14;16.53;;;12.73;;
4547;SDS011;2286;51.570;7.090;2023-04-06T10:17:42;15.00;;;11.97;;
4547;SDS011;2286;51.570;7.090;2023-04-06T10:20:10;15.70;;;12.63;;
4547;SDS011;2286;51.570;7.090;2023-04-06T10:22:50;17.73;;;12.97;;
4547;SDS011;2286;51.570;7.090;2023-04-06T10:25:30;14.97;;;12.97;;
4547;SDS011;2286;51.570;7.090;2023-04-06T10:28:01;15.03;;;13.20;;
4547;SDS011;2286;51.570;7.090;2023-04-06T10:30:32;15.17;;;12.83;;
4547;SDS011;2286;51.570;7.090;2023-04-06T10:33:00;18.43;;;13.27;;
4547;SDS011;2286;51.570;7.090;2023-04-06T10:35:38;21.37;;;14.93;;
4547;SDS011;2286;51.570;7.090;2023-04-06T10:38:05;15.40;;;12.80;;
4547;SDS011;2286;51.570;7.090;2023-04-06T10:40:36;15.67;;;12.80;;
4547;SDS011;2286;51.570;7.090;2023-04-06T10:43:08;17.90;;;13.43;;
4547;SDS011;2286;51.570;7.090;2023-04-06T10:45:36;15.60;;;14.10;;
4547;SDS011;2286;51.570;7.090;2023-04-06T10:48:12;16.53;;;14.07;;
4547;SDS011;2286;51.570;7.090;2023-04-06T10:50:41;20.03;;;14.83;;
4547;SDS011;2286;51.570;7.090;2023-04-06T10:53:09;17.40;;;15.53;;
4547;SDS011;2286;51.570;7.090;2023-04-06T10:55:39;15.23;;;13.47;;
4547;SDS011;2286;51.570;7.090;2023-04-06T10:58:07;16.10;;;14.33;;
4547;SDS011;2286;51.570;7.090;2023-04-06T11:00:34;15.60;;;14.00;;
4547;SDS011;2286;51.570;7.090;2023-04-06T11:03:02;22.83;;;15.53;;
4547;SDS011;2286;51.570;7.090;2023-04-06T11:05:29;18.83;;;16.90;;
4547;SDS011;2286;51.570;7.090;2023-04-06T11:07:56;19.97;;;17.57;;
4547;SDS011;2286;51.570;7.090;2023-04-06T11:10:23;20.63;;;17.90;;
4547;SDS011;2286;51.570;7.090;2023-04-06T11:12:55;18.30;;;16.57;;
4547;SDS011;2286;51.570;7.090;2023-04-06T11:15:23;18.73;;;16.90;;
4547;SDS011;2286;51.570;7.090;2023-04-06T11:17:50;21.67;;;17.70;;
4547;SDS011;2286;51.570;7.090;2023-04-06T11:20:17;20.53;;;18.33;;
4547;SDS011;2286;51.570;7.090;2023-04-06T11:22:48;18.97;;;17.17;;
4547;SDS011;2286;51.570;7.090;2023-04-06T11:25:16;17.40;;;15.57;;
4547;SDS011;2286;51.570;7.090;2023-04-06T11:27:44;19.60;;;17.60;;
4547;SDS011;2286;51.570;7.090;2023-04-06T11:30:14;20.07;;;17.10;;
4547;SDS011;2286;51.570;7.090;2023-04-06T11:32:42;20.13;;;16.30;;
4547;SDS011;2286;51.570;7.090;2023-04-06T11:35:19;19.43;;;16.63;;
4547;SDS011;2286;51.570;7.090;2023-04-06T11:37:48;16.83;;;15.03;;
4547;SDS011;2286;51.570;7.090;2023-04-06T11:40:20;18.90;;;16.90;;
4547;SDS011;2286;51.570;7.090;2023-04-06T11:42:51;16.90;;;15.10;;
4547;SDS011;2286;51.570;7.090;2023-04-06T11:45:21;16.73;;;13.70;;
4547;SDS011;2286;51.570;7.090;2023-04-06T11:47:55;17.27;;;14.17;;
4547;SDS011;2286;51.570;7.090;2023-04-06T11:50:23;17.90;;;14.50;;
4547;SDS011;2286;51.570;7.090;2023-04-06T11:52:57;16.33;;;13.73;;
4547;SDS011;2286;51.570;7.090;2023-04-06T11:55:25;16.37;;;14.23;;
4547;SDS011;2286;51.570;7.090;2023-04-06T11:57:53;16.03;;;12.57;;
4547;SDS011;2286;51.570;7.090;2023-04-06T12:00:21;14.30;;;12.13;;
4547;SDS011;2286;51.570;7.090;2023-04-06T12:02:48;16.53;;;12.03;;
4547;SDS011;2286;51.570;7.090;2023-04-06T12:05:16;12.93;;;11.60;;
4547;SDS011;2286;51.570;7.090;2023-04-06T12:07:43;13.50;;;11.80;;
4547;SDS011;2286;51.570;7.090;2023-04-06T12:10:11;19.03;;;13.30;;
4547;SDS011;2286;51.570;7.090;2023-04-06T12:12:39;17.23;;;12.80;;
4547;SDS011;2286;51.570;7.090;2023-04-06T12:15:07;15.03;;;12.77;;
4547;SDS011;2286;51.570;7.090;2023-04-06T12:17:36;17.30;;;13.43;;
4547;SDS011;2286;51.570;7.090;2023-04-06T12:20:03;17.93;;;13.60;;
4547;SDS011;2286;51.570;7.090;2023-04-06T12:22:31;16.80;;;13.23;;
4547;SDS011;2286;51.570;7.090;2023-04-06T12:24:58;16.40;;;12.87;;
4547;SDS011;2286;51.570;7.090;2023-04-06T12:27:26;20.00;;;13.07;;
4547;SDS011;2286;51.570;7.090;2023-04-06T12:29:53;17.43;;;12.97;;
4547;SDS011;2286;51.570;7.090;2023-04-06T12:32:20;16.97;;;13.00;;
4547;SDS011;2286;51.570;7.090;2023-04-06T12:34:50;16.70;;;12.83;;
4547;SDS011;2286;51.570;7.090;2023-04-06T12:37:18;14.57;;;12.50;;
4547;SDS011;2286;51.570;7.090;2023-04-06T12:39:45;16.63;;;13.07;;
4547;SDS011;2286;51.570;7.090;2023-04-06T12:42:13;16.73;;;11.77;;
4547;SDS011;2286;51.570;7.090;2023-04-06T12:44:40;14.73;;;12.20;;
4547;SDS011;2286;51.570;7.090;2023-04-06T12:47:08;15.20;;;12.70;;
4547;SDS011;2286;51.570;7.090;2023-04-06T12:49:36;19.37;;;12.03;;
4547;SDS011;2286;51.570;7.090;2023-04-06T12:52:04;14.83;;;12.50;;
4547;SDS011;2286;51.570;7.090;2023-04-06T12:54:31;19.33;;;13.03;;
4547;SDS011;2286;51.570;7.090;2023-04-06T12:56:59;17.10;;;12.50;;
4547;SDS011;2286;51.570;7.090;2023-04-06T12:59:26;14.33;;;12.60;;
4547;SDS011;2286;51.570;7.090;2023-04-06T13:01:59;16.47;;;13.10;;
4547;SDS011;2286;51.570;7.090;2023-04-06T13:04:26;14.40;;;12.87;;
4547;SDS011;2286;51.570;7.090;2023-04-06T13:06:53;19.20;;;14.43;;
4547;SDS011;2286;51.570;7.090;2023-04-06T13:09:22;16.87;;;13.00;;
4547;SDS011;2286;51.570;7.090;2023-04-06T13:11:49;14.93;;;12.87;;
4547;SDS011;2286;51.570;7.090;2023-04-06T13:14:17;17.07;;;13.20;;
4547;SDS011;2286;51.570;7.090;2023-04-06T13:16:44;17.40;;;13.90;;
4547;SDS011;2286;51.570;7.090;2023-04-06T13:19:11;19.20;;;15.17;;
4547;SDS011;2286;51.570;7.090;2023-04-06T13:21:38;16.00;;;13.70;;
4547;SDS011;2286;51.570;7.090;2023-04-06T13:24:06;17.47;;;13.60;;
4547;SDS011;2286;51.570;7.090;2023-04-06T13:26:35;14.80;;;13.07;;
4547;SDS011;2286;51.570;7.090;2023-04-06T13:29:02;17.63;;;14.37;;
4547;SDS011;2286;51.570;7.090;2023-04-06T13:31:29;16.77;;;12.90;;
4547;SDS011;2286;51.570;7.090;2023-04-06T13:33:56;14.97;;;13.37;;
4547;SDS011;2286;51.570;7.090;2023-04-06T13:36:24;17.77;;;12.90;;
4547;SDS011;2286;51.570;7.090;2023-04-06T13:38:52;15.80;;;12.90;;
4547;SDS011;2286;51.570;7.090;2023-04-06T13:41:21;20.60;;;15.00;;
4547;SDS011;2286;51.570;7.090;2023-04-06T13:43:51;20.53;;;12.90;;
4547;SDS011;2286;51.570;7.090;2023-04-06T13:46:19;15.20;;;13.60;;
4547;SDS011;2286;51.570;7.090;2023-04-06T13:48:46;13.83;;;12.43;;
4547;SDS011;2286;51.570;7.090;2023-04-06T13:51:13;12.33;;;11.03;;
4547;SDS011;2286;51.570;7.090;2023-04-06T13:53:41;12.83;;;10.40;;
4547;SDS011;2286;51.570;7.090;2023-04-06T13:56:08;13.63;;;10.93;;
4547;SDS011;2286;51.570;7.090;2023-04-06T13:58:35;11.70;;;10.43;;
4547;SDS011;2286;51.570;7.090;2023-04-06T14:01:04;12.50;;;10.47;;
4547;SDS011;2286;51.570;7.090;2023-04-06T14:03:32;11.90;;;9.47;;
4547;SDS011;2286;51.570;7.090;2023-04-06T14:05:59;11.60;;;10.50;;
4547;SDS011;2286;51.570;7.090;2023-04-06T14:08:26;16.63;;;11.43;;
4547;SDS011;2286;51.570;7.090;2023-04-06T14:10:54;12.50;;;10.97;;
4547;SDS011;2286;51.570;7.090;2023-04-06T14:13:21;12.50;;;11.20;;
4547;SDS011;2286;51.570;7.090;2023-04-06T14:15:52;13.30;;;11.00;;
4547;SDS011;2286;51.570;7.090;2023-04-06T14:18:21;13.43;;;10.00;;
4547;SDS011;2286;51.570;7.090;2023-04-06T14:20:53;12.83;;;11.27;;
4547;SDS011;2286;51.570;7.090;2023-04-06T14:23:21;13.00;;;11.10;;
4547;SDS011;2286;51.570;7.090;2023-04-06T14:25:48;13.03;;;11.00;;
4547;SDS011;2286;51.570;7.090;2023-04-06T14:28:15;13.53;;;11.03;;
4547;SDS011;2286;51.570;7.090;2023-04-06T14:30:42;13.53;;;11.33;;
4547;SDS011;2286;51.570;7.090;2023-04-06T14:33:09;12.70;;;10.80;;
4547;SDS011;2286;51.570;7.090;2023-04-06T14:35:39;13.10;;;10.63;;
4547;SDS011;2286;51.570;7.090;2023-04-06T14:38:06;15.73;;;10.40;;
4547;SDS011;2286;51.570;7.090;2023-04-06T14:40:34;11.80;;;10.60;;
4547;SDS011;2286;51.570;7.090;2023-04-06T14:43:02;12.30;;;11.00;;
4547;SDS011;2286;51.570;7.090;2023-04-06T14:45:32;10.93;;;9.83;;
4547;SDS011;2286;51.570;7.090;2023-04-06T14:48:01;12.47;;;10.77;;
4547;SDS011;2286;51.570;7.090;2023-04-06T14:50:30;10.77;;;9.70;;
4547;SDS011;2286;51.570;7.090;2023-04-06T14:52:59;10.83;;;9.30;;
4547;SDS011;2286;51.570;7.090;2023-04-06T14:55:26;13.73;;;10.20;;
4547;SDS011;2286;51.570;7.090;2023-04-06T14:57:53;17.70;;;10.83;;
4547;SDS011;2286;51.570;7.090;2023-04-06T15:00:20;11.30;;;10.20;;
4547;SDS011;2286;51.570;7.090;2023-04-06T15:02:47;11.10;;;9.97;;
4547;SDS011;2286;51.570;7.090;2023-04-06T15:05:15;12.40;;;9.30;;
4547;SDS011;2286;51.570;7.090;2023-04-06T15:07:42;10.60;;;9.50;;
4547;SDS011;2286;51.570;7.090;2023-04-06T15:10:10;11.33;;;9.70;;
4547;SDS011;2286;51.570;7.090;2023-04-06T15:12:37;12.60;;;10.00;;
4547;SDS011;2286;51.570;7.090;2023-04-06T15:15:05;10.30;;;8.57;;
4547;SDS011;2286;51.570;7.090;2023-04-06T15:17:32;9.13;;;8.33;;
4547;SDS011;2286;51.570;7.090;2023-04-06T15:19:59;10.77;;;8.40;;
4547;SDS011;2286;51.570;7.090;2023-04-06T15:22:26;9.83;;;8.93;;
4547;SDS011;2286;51.570;7.090;2023-04-06T15:24:54;10.90;;;9.10;;
4547;SDS011;2286;51.570;7.090;2023-04-06T15:27:23;11.87;;;8.30;;
4547;SDS011;2286;51.570;7.090;2023-04-06T15:29:50;11.80;;;8.60;;
4547;SDS011;2286;51.570;7.090;2023-04-06T15:32:17;9.40;;;8.40;;
4547;SDS011;2286;51.570;7.090;2023-04-06T15:34:44;10.00;;;8.93;;
4547;SDS011;2286;51.570;7.090;2023-04-06T15:37:11;12.00;;;8.67;;
4547;SDS011;2286;51.570;7.090;2023-04-06T15:39:38;10.20;;;9.20;;
4547;SDS011;2286;51.570;7.090;2023-04-06T15:42:05;9.90;;;8.83;;
4547;SDS011;2286;51.570;7.090;2023-04-06T15:44:33;9.50;;;8.20;;
4547;SDS011;2286;51.570;7.090;2023-04-06T15:47:00;8.90;;;8.00;;
4547;SDS011;2286;51.570;7.090;2023-04-06T15:49:28;9.60;;;8.60;;
4547;SDS011;2286;51.570;7.090;2023-04-06T15:51:55;8.43;;;7.50;;
4547;SDS011;2286;51.570;7.090;2023-04-06T15:54:22;10.80;;;9.03;;
4547;SDS011;2286;51.570;7.090;2023-04-06T15:56:49;8.83;;;8.03;;
4547;SDS011;2286;51.570;7.090;2023-04-06T15:59:16;9.63;;;8.43;;
4547;SDS011;2286;51.570;7.090;2023-04-06T16:01:45;10.73;;;8.50;;
4547;SDS011;2286;51.570;7.090;2023-04-06T16:04:12;10.13;;;8.60;;
4547;SDS011;2286;51.570;7.090;2023-04-06T16:06:39;8.50;;;7.70;;
4547;SDS011;2286;51.570;7.090;2023-04-06T16:09:06;8.63;;;7.80;;
4547;SDS011;2286;51.570;7.090;2023-04-06T16:11:33;8.50;;;7.70;;
4547;SDS011;2286;51.570;7.090;2023-04-06T16:14:01;9.53;;;7.93;;
4547;SDS011;2286;51.570;7.090;2023-04-06T16:16:28;8.00;;;7.30;;
4547;SDS011;2286;51.570;7.090;2023-04-06T16:18:56;8.40;;;7.07;;
4547;SDS011;2286;51.570;7.090;2023-04-06T16:21:23;20.80;;;18.60;;
4547;SDS011;2286;51.570;7.090;2023-04-06T16:23:52;8.10;;;7.30;;
4547;SDS011;2286;51.570;7.090;2023-04-06T16:26:20;8.00;;;7.20;;
4547;SDS011;2286;51.570;7.090;2023-04-06T16:28:47;9.33;;;8.33;;
4547;SDS011;2286;51.570;7.090;2023-04-06T16:31:16;12.00;;;10.90;;
4547;SDS011;2286;51.570;7.090;2023-04-06T16:33:45;7.90;;;7.10;;
4547;SDS011;2286;51.570;7.090;2023-04-06T16:36:13;8.20;;;6.90;;
4547;SDS011;2286;51.570;7.090;2023-04-06T16:38:40;8.97;;;8.07;;
4547;SDS011;2286;51.570;7.090;2023-04-06T16:41:07;10.00;;;7.97;;